createdAt,value
2018-09-24T00:00:12.113Z,19.52
2018-09-24T00:02:40.995Z,19.50
2018-09-24T00:05:10.092Z,19.50
2018-09-24T00:07:39.122Z,19.44
2018-09-24T00:10:08.143Z,19.41
2018-09-24T00:12:37.326Z,19.42
2018-09-24T00:15:06.345Z,19.43
2018-09-24T00:17:35.486Z,19.43
2018-09-24T00:20:04.549Z,19.45
2018-09-24T00:22:33.656Z,19.46
2018-09-24T00:25:02.930Z,19.48
2018-09-24T00:27:32.111Z,19.44
2018-09-24T00:30:01.200Z,19.54
2018-09-24T00:32:30.269Z,19.44
2018-09-24T00:34:59.465Z,19.45
2018-09-24T00:37:28.610Z,19.39
2018-09-24T00:39:57.650Z,19.33
2018-09-24T00:42:27.329Z,19.28
2018-09-24T00:44:56.396Z,19.24
2018-09-24T00:47:25.534Z,19.19
2018-09-24T00:49:54.683Z,19.15
2018-09-24T00:52:23.750Z,19.13
2018-09-24T00:54:52.805Z,19.12
2018-09-24T00:57:21.883Z,19.11
2018-09-24T00:59:50.948Z,19.09
2018-09-24T01:02:20.095Z,19.02
2018-09-24T01:04:49.148Z,18.99
2018-09-24T01:07:18.282Z,18.94
2018-09-24T01:09:47.744Z,18.94
2018-09-24T01:12:16.881Z,18.93
2018-09-24T01:14:45.925Z,18.99
2018-09-24T01:17:15.171Z,18.89
2018-09-24T01:19:44.614Z,18.97
2018-09-24T01:22:13.729Z,18.88
2018-09-24T01:24:42.865Z,18.83
2018-09-24T01:27:11.946Z,18.79
2018-09-24T01:29:41.092Z,18.77
2018-09-24T01:32:10.293Z,18.75
2018-09-24T01:34:39.339Z,18.71
2018-09-24T01:37:08.486Z,18.72
2018-09-24T01:39:37.596Z,18.71
2018-09-24T01:42:06.666Z,18.67
2018-09-24T01:44:36.147Z,18.69
2018-09-24T01:47:05.167Z,18.64
2018-09-24T01:49:34.655Z,18.59
2018-09-24T01:52:03.998Z,18.62
2018-09-24T01:54:33.034Z,18.56
2018-09-24T01:57:02.309Z,18.51
2018-09-24T01:59:31.423Z,18.51
2018-09-24T02:02:00.525Z,18.46
2018-09-24T02:04:29.766Z,18.47
2018-09-24T02:07:02.054Z,18.45
2018-09-24T02:09:31.575Z,18.47
2018-09-24T02:12:06.198Z,18.33
2018-09-24T02:14:35.637Z,18.30
2018-09-24T02:17:04.774Z,18.25
2018-09-24T02:19:34.226Z,18.16
2018-09-24T02:22:03.362Z,18.12
2018-09-24T02:24:32.706Z,18.13
2018-09-24T02:27:01.847Z,18.08
2018-09-24T02:29:30.982Z,18.17
2018-09-24T02:32:00.108Z,18.13
2018-09-24T02:34:29.416Z,18.32
2018-09-24T02:36:58.538Z,18.22
2018-09-24T02:39:27.601Z,18.15
2018-09-24T02:41:57.255Z,18.10
2018-09-24T02:44:27.877Z,18.11
2018-09-24T02:46:57.760Z,18.08
2018-09-24T02:49:26.752Z,17.98
2018-09-24T02:51:57.232Z,17.95
2018-09-24T02:54:26.375Z,17.93
2018-09-24T02:56:55.900Z,17.92
2018-09-24T02:59:24.883Z,17.93
2018-09-24T03:01:53.940Z,17.86
2018-09-24T03:04:23.413Z,17.85
2018-09-24T03:06:52.837Z,17.73
2018-09-24T03:09:22.066Z,17.64
2018-09-24T03:11:51.206Z,17.70
2018-09-24T03:14:27.829Z,17.66
2018-09-24T03:16:57.302Z,17.60
2018-09-24T03:19:26.375Z,17.60
2018-09-24T03:21:55.518Z,17.59
2018-09-24T03:24:25.135Z,17.60
2018-09-24T03:26:54.482Z,17.72
2018-09-24T03:29:24.753Z,17.61
2018-09-24T03:31:54.144Z,17.60
2018-09-24T03:34:23.193Z,17.55
2018-09-24T03:36:52.730Z,17.53
2018-09-24T03:39:21.921Z,17.45
2018-09-24T03:41:51.264Z,17.37
2018-09-24T03:44:20.404Z,17.31
2018-09-24T03:46:49.387Z,17.26
2018-09-24T03:49:18.555Z,17.28
2018-09-24T03:51:48.142Z,17.20
2018-09-24T03:54:17.397Z,17.24
2018-09-24T03:56:46.623Z,17.29
2018-09-24T03:59:15.630Z,17.34
2018-09-24T04:01:44.765Z,17.37
2018-09-24T04:04:18.732Z,17.33
2018-09-24T04:06:52.686Z,17.36
2018-09-24T04:09:27.238Z,17.39
2018-09-24T04:12:01.608Z,17.46
2018-09-24T04:14:35.530Z,17.42
2018-09-24T04:17:09.470Z,17.46
2018-09-24T04:19:44.604Z,17.55
2018-09-24T04:22:18.588Z,17.49
2018-09-24T04:24:52.521Z,17.54
2018-09-24T04:27:26.941Z,17.58
2018-09-24T04:30:00.916Z,17.64
2018-09-24T04:32:34.929Z,17.72
2018-09-24T04:35:08.894Z,17.65
2018-09-24T04:37:42.986Z,17.72
2018-09-24T04:40:17.099Z,17.77
2018-09-24T04:42:51.191Z,17.75
2018-09-24T04:45:25.224Z,17.80
2018-09-24T04:47:59.662Z,17.85
2018-09-24T04:50:33.680Z,17.81
2018-09-24T04:53:07.667Z,17.77
2018-09-24T04:55:41.861Z,17.97
2018-09-24T04:58:15.794Z,17.97
2018-09-24T05:00:50.233Z,18.04
2018-09-24T05:03:24.440Z,18.20
2018-09-24T05:05:59.970Z,18.23
2018-09-24T05:08:33.947Z,18.18
2018-09-24T05:11:08.538Z,18.27
2018-09-24T05:13:42.767Z,18.32
2018-09-24T05:16:16.871Z,18.65
2018-09-24T05:18:50.870Z,18.40
2018-09-24T05:21:24.945Z,18.30
2018-09-24T05:23:59.303Z,18.15
2018-09-24T05:26:33.354Z,18.30
2018-09-24T05:29:07.582Z,18.37
2018-09-24T05:31:41.657Z,18.38
2018-09-24T05:34:15.648Z,18.47
2018-09-24T05:36:49.629Z,18.39
2018-09-24T05:39:23.807Z,18.34
2018-09-24T05:41:57.760Z,18.43
2018-09-24T05:44:31.681Z,18.40
2018-09-24T05:47:05.865Z,18.29
2018-09-24T05:49:40.307Z,18.20
2018-09-24T05:52:14.241Z,18.26
2018-09-24T05:54:48.475Z,18.15
2018-09-24T05:57:22.525Z,18.15
2018-09-24T05:59:56.510Z,18.22
2018-09-24T06:02:30.643Z,18.20
2018-09-24T06:05:04.628Z,18.31
2018-09-24T06:07:38.579Z,18.51
2018-09-24T06:10:13.115Z,18.46
2018-09-24T06:12:47.112Z,18.45
2018-09-24T06:15:21.528Z,18.61
2018-09-24T06:17:55.615Z,18.58
2018-09-24T06:20:29.951Z,18.75
2018-09-24T06:23:04.714Z,19.26
2018-09-24T06:25:38.670Z,19.51
2018-09-24T06:28:12.859Z,19.34
2018-09-24T06:30:47.023Z,19.22
2018-09-24T06:33:21.440Z,19.06
2018-09-24T06:35:55.748Z,19.20
2018-09-24T06:38:30.058Z,19.24
2018-09-24T06:41:04.166Z,19.30
2018-09-24T06:43:38.323Z,19.32
2018-09-24T06:46:12.598Z,19.50
2018-09-24T06:48:47.596Z,19.58
2018-09-24T06:51:21.566Z,19.63
2018-09-24T06:53:55.667Z,19.65
2018-09-24T06:56:29.706Z,19.68
2018-09-24T06:59:03.850Z,19.74
2018-09-24T07:01:37.842Z,19.74
2018-09-24T07:04:11.964Z,19.77
2018-09-24T07:06:45.973Z,19.84
2018-09-24T07:09:20.052Z,19.82
2018-09-24T07:11:54.083Z,20.17
2018-09-24T07:14:28.429Z,20.26
2018-09-24T07:17:02.755Z,20.37
2018-09-24T07:19:37.140Z,20.60
2018-09-24T07:22:11.208Z,20.57
2018-09-24T07:24:45.555Z,20.77
2018-09-24T07:27:19.578Z,20.91
2018-09-24T07:29:53.658Z,20.86
2018-09-24T07:32:27.967Z,21.03
2018-09-24T07:35:02.092Z,21.25
2018-09-24T07:37:36.799Z,21.19
2018-09-24T07:40:11.250Z,21.23
2018-09-24T07:42:45.195Z,21.22
2018-09-24T07:45:19.105Z,21.41
2018-09-24T07:47:53.421Z,21.34
2018-09-24T07:50:27.584Z,21.46
2018-09-24T07:53:01.924Z,21.68
2018-09-24T07:55:36.188Z,21.73
2018-09-24T07:58:10.691Z,21.97
2018-09-24T08:00:45.203Z,21.93
2018-09-24T08:03:19.400Z,22.05
2018-09-24T08:05:53.515Z,22.19
2018-09-24T08:08:27.623Z,22.16
2018-09-24T08:11:01.852Z,22.40
2018-09-24T08:13:36.283Z,22.57
2018-09-24T08:16:10.494Z,22.54
2018-09-24T08:18:44.531Z,22.67
2018-09-24T08:21:18.899Z,22.93
2018-09-24T08:23:53.354Z,23.05
2018-09-24T08:26:27.293Z,23.03
2018-09-24T08:29:01.489Z,23.18
2018-09-24T08:31:35.563Z,23.32
2018-09-24T08:34:09.526Z,23.33
2018-09-24T08:36:43.894Z,23.54
2018-09-24T08:39:17.956Z,23.65
2018-09-24T08:41:51.991Z,23.87
2018-09-24T08:44:26.034Z,24.03
2018-09-24T08:47:00.254Z,23.85
2018-09-24T08:49:34.577Z,23.97
2018-09-24T08:52:08.914Z,24.44
2018-09-24T08:54:43.272Z,24.37
2018-09-24T08:57:17.302Z,24.62
2018-09-24T08:59:51.444Z,24.53
2018-09-24T09:02:25.564Z,24.68
2018-09-24T09:05:00.215Z,24.79
2018-09-24T09:07:34.531Z,24.95
2018-09-24T09:10:08.638Z,25.02
2018-09-24T09:12:42.722Z,25.05
2018-09-24T09:15:16.873Z,25.08
2018-09-24T09:17:51.094Z,25.46
2018-09-24T09:20:25.403Z,25.86
2018-09-24T09:22:59.696Z,26.06
2018-09-24T09:25:33.868Z,26.66
2018-09-24T09:28:07.942Z,26.51
2018-09-24T09:30:42.066Z,26.09
2018-09-24T09:33:16.282Z,26.23
2018-09-24T09:35:50.294Z,26.29
2018-09-24T09:38:24.312Z,26.26
2018-09-24T09:40:58.717Z,26.72
2018-09-24T09:43:33.094Z,26.55
2018-09-24T09:46:07.063Z,26.55
2018-09-24T09:48:41.347Z,26.53
2018-09-24T09:51:15.694Z,26.58
2018-09-24T09:53:49.842Z,26.75
2018-09-24T09:56:23.881Z,26.80
2018-09-24T09:58:57.891Z,26.86
2018-09-24T10:01:32.021Z,27.25
2018-09-24T10:04:06.151Z,27.48
2018-09-24T10:06:40.121Z,27.76
2018-09-24T10:09:14.427Z,27.67
2018-09-24T10:11:48.896Z,27.96
2018-09-24T10:14:22.921Z,28.11
2018-09-24T10:16:57.038Z,28.38
2018-09-24T10:19:31.113Z,28.52
2018-09-24T10:22:05.308Z,28.49
2018-09-24T10:24:39.918Z,28.18
2018-09-24T10:27:14.420Z,28.16
2018-09-24T10:29:48.426Z,28.16
2018-09-24T10:32:22.674Z,27.69
2018-09-24T10:34:56.667Z,27.09
2018-09-24T10:37:30.731Z,27.38
2018-09-24T10:40:04.855Z,27.39
2018-09-24T10:42:38.970Z,26.97
2018-09-24T10:45:13.250Z,27.09
2018-09-24T10:47:47.233Z,26.57
2018-09-24T10:50:21.407Z,26.76
2018-09-24T10:52:55.470Z,26.82
2018-09-24T10:55:29.515Z,26.87
2018-09-24T10:58:03.718Z,26.75
2018-09-24T11:00:37.894Z,26.11
2018-09-24T11:03:11.891Z,26.20
2018-09-24T11:05:46.286Z,26.44
2018-09-24T11:08:20.350Z,26.20
2018-09-24T11:10:54.347Z,25.87
2018-09-24T11:13:28.796Z,25.33
2018-09-24T11:16:03.180Z,25.45
2018-09-24T11:18:37.186Z,25.55
2018-09-24T11:21:11.224Z,25.81
2018-09-24T11:23:45.213Z,25.97
2018-09-24T11:28:53.740Z,25.86
2018-09-24T11:31:27.790Z,25.89
2018-09-24T11:34:01.898Z,25.79
2018-09-24T11:36:35.920Z,25.90
2018-09-24T11:39:12.062Z,25.82
2018-09-24T11:41:46.175Z,26.26
2018-09-24T11:44:20.372Z,26.28
2018-09-24T11:46:54.398Z,26.22
2018-09-24T11:49:28.403Z,26.29
2018-09-24T11:52:02.724Z,26.44
2018-09-24T11:54:36.950Z,26.31
2018-09-24T11:57:11.215Z,26.48
2018-09-24T11:59:45.115Z,26.69
2018-09-24T12:02:19.176Z,26.65
2018-09-24T12:04:53.588Z,26.88
2018-09-24T12:07:28.128Z,27.08
2018-09-24T12:10:02.617Z,27.26
2018-09-24T12:12:36.771Z,27.33
2018-09-24T12:15:11.391Z,27.55
2018-09-24T12:17:45.302Z,27.56
2018-09-24T12:20:19.382Z,27.52
2018-09-24T12:22:53.536Z,27.51
2018-09-24T12:25:27.460Z,27.40
2018-09-24T12:28:01.469Z,27.38
2018-09-24T12:30:35.575Z,27.38
2018-09-24T12:33:09.879Z,27.67
2018-09-24T12:35:44.330Z,27.59
2018-09-24T12:38:18.619Z,27.67
2018-09-24T12:40:52.535Z,27.38
2018-09-24T12:43:26.482Z,27.35
2018-09-24T12:46:00.571Z,27.38
2018-09-24T12:48:34.821Z,26.86
2018-09-24T12:51:08.955Z,26.83
2018-09-24T12:53:42.984Z,26.99
2018-09-24T12:56:16.949Z,27.55
2018-09-24T12:58:50.903Z,27.50
2018-09-24T13:01:25.272Z,27.20
2018-09-24T13:03:59.412Z,26.80
2018-09-24T13:06:33.677Z,26.61
2018-09-24T13:09:07.778Z,26.77
2018-09-24T13:11:41.757Z,26.73
2018-09-24T13:14:15.987Z,26.69
2018-09-24T13:16:50.016Z,26.97
2018-09-24T13:19:24.640Z,26.87
2018-09-24T13:21:59.049Z,27.18
2018-09-24T13:24:33.004Z,26.88
2018-09-24T13:27:07.341Z,26.77
2018-09-24T13:29:41.336Z,26.72
2018-09-24T13:32:15.492Z,27.20
2018-09-24T13:34:49.614Z,27.50
2018-09-24T13:37:23.770Z,27.64
2018-09-24T13:39:57.696Z,27.61
2018-09-24T13:42:31.697Z,27.84
2018-09-24T13:45:06.123Z,27.33
2018-09-24T13:47:40.232Z,27.73
2018-09-24T13:50:14.416Z,27.31
2018-09-24T13:52:48.340Z,27.44
2018-09-24T13:55:22.504Z,27.07
2018-09-24T13:57:56.726Z,26.93
2018-09-24T14:00:30.790Z,26.56
2018-09-24T14:03:04.846Z,26.56
2018-09-24T14:05:39.119Z,26.72
2018-09-24T14:08:13.118Z,27.07
2018-09-24T14:10:47.058Z,26.35
2018-09-24T14:13:21.071Z,26.32
2018-09-24T14:15:55.178Z,26.15
2018-09-24T14:18:29.657Z,26.17
2018-09-24T14:21:03.742Z,26.17
2018-09-24T14:23:38.148Z,26.28
2018-09-24T14:26:12.462Z,26.52
2018-09-24T14:28:46.692Z,26.26
2018-09-24T14:31:21.229Z,25.72
2018-09-24T14:33:55.473Z,25.93
2018-09-24T14:36:29.586Z,25.77
2018-09-24T14:39:03.515Z,26.02
2018-09-24T14:41:37.618Z,26.29
2018-09-24T14:44:11.850Z,26.20
2018-09-24T14:46:45.870Z,25.83
2018-09-24T14:49:19.836Z,26.24
2018-09-24T14:51:53.998Z,26.64
2018-09-24T14:54:28.030Z,26.43
2018-09-24T14:57:01.923Z,26.47
2018-09-24T14:59:35.842Z,26.37
2018-09-24T15:02:09.885Z,26.46
2018-09-24T15:04:43.906Z,26.16
2018-09-24T15:07:18.045Z,25.86
2018-09-24T15:09:52.030Z,25.49
2018-09-24T15:12:26.278Z,25.23
2018-09-24T15:15:00.390Z,25.86
2018-09-24T15:17:34.505Z,26.31
2018-09-24T15:20:08.539Z,26.52
2018-09-24T15:22:42.638Z,26.64
2018-09-24T15:25:16.770Z,26.55
2018-09-24T15:27:50.809Z,25.97
2018-09-24T15:30:24.834Z,25.52
2018-09-24T15:32:58.918Z,25.16
2018-09-24T15:35:33.100Z,25.11
2018-09-24T15:38:07.146Z,24.92
2018-09-24T15:40:41.121Z,24.86
2018-09-24T15:43:15.145Z,25.05
2018-09-24T15:45:49.123Z,25.28
2018-09-24T15:48:23.275Z,25.07
2018-09-24T15:50:57.213Z,25.11
2018-09-24T15:53:31.514Z,25.29
2018-09-24T15:56:05.496Z,25.27
2018-09-24T15:58:39.674Z,25.31
2018-09-24T16:01:13.938Z,25.26
2018-09-24T16:03:47.943Z,25.20
2018-09-24T16:06:22.041Z,25.29
2018-09-24T16:08:56.228Z,25.09
2018-09-24T16:11:30.093Z,25.19
2018-09-24T16:14:04.200Z,25.09
2018-09-24T16:16:38.170Z,24.81
2018-09-24T16:19:12.790Z,24.66
2018-09-24T16:21:46.932Z,24.75
2018-09-24T16:24:21.016Z,24.62
2018-09-24T16:26:55.020Z,24.97
2018-09-24T16:29:29.270Z,24.77
2018-09-24T16:32:03.520Z,24.64
2018-09-24T16:34:37.420Z,24.64
2018-09-24T16:37:11.719Z,24.75
2018-09-24T16:39:45.891Z,25.14
2018-09-24T16:42:19.911Z,26.09
2018-09-24T16:44:54.058Z,26.40
2018-09-24T16:47:28.303Z,26.50
2018-09-24T16:50:02.583Z,26.32
2018-09-24T16:52:36.718Z,26.35
2018-09-24T16:55:10.803Z,26.24
2018-09-24T16:57:45.035Z,25.98
2018-09-24T17:00:19.252Z,25.94
2018-09-24T17:02:53.435Z,25.76
2018-09-24T17:05:27.362Z,25.78
2018-09-24T17:08:01.681Z,25.55
2018-09-24T17:10:35.772Z,25.41
2018-09-24T17:13:09.900Z,25.45
2018-09-24T17:15:44.147Z,25.29
2018-09-24T17:18:18.260Z,25.15
2018-09-24T17:20:52.860Z,24.93
2018-09-24T17:23:27.222Z,24.95
2018-09-24T17:26:01.393Z,24.89
2018-09-24T17:28:35.334Z,24.73
2018-09-24T17:31:09.683Z,24.66
2018-09-24T17:33:43.887Z,24.47
2018-09-24T17:36:17.894Z,24.45
2018-09-24T17:38:52.194Z,24.53
2018-09-24T17:41:26.379Z,24.38
2018-09-24T17:44:00.554Z,24.16
2018-09-24T17:46:34.638Z,24.09
2018-09-24T17:49:08.626Z,24.08
2018-09-24T17:51:42.937Z,23.97
2018-09-24T17:54:16.972Z,23.85
2018-09-24T17:56:50.980Z,23.89
2018-09-24T17:59:25.161Z,23.67
2018-09-24T18:01:59.302Z,23.65
2018-09-24T18:04:33.444Z,23.50
2018-09-24T18:07:07.651Z,23.46
2018-09-24T18:09:41.788Z,23.31
2018-09-24T18:12:15.737Z,23.33
2018-09-24T18:14:49.884Z,23.17
2018-09-24T18:17:23.829Z,23.05
2018-09-24T18:19:58.173Z,23.03
2018-09-24T18:22:32.700Z,22.91
2018-09-24T18:25:06.713Z,22.88
2018-09-24T18:27:40.808Z,22.81
2018-09-24T18:30:14.943Z,22.67
2018-09-24T18:32:56.270Z,22.59
2018-09-24T18:35:30.254Z,22.51
2018-09-24T18:38:04.647Z,22.69
2018-09-24T18:40:38.790Z,22.37
2018-09-24T18:43:12.872Z,22.63
2018-09-24T18:45:46.896Z,22.47
2018-09-24T18:48:20.921Z,22.66
2018-09-24T18:50:55.138Z,22.40
2018-09-24T18:53:29.248Z,22.33
2018-09-24T18:56:03.390Z,22.20
2018-09-24T18:58:37.260Z,22.22
2018-09-24T19:01:11.537Z,22.28
2018-09-24T19:03:45.994Z,21.97
2018-09-24T19:06:20.087Z,22.05
2018-09-24T19:08:54.186Z,21.79
2018-09-24T19:11:28.290Z,21.74
2018-09-24T19:14:02.467Z,21.58
2018-09-24T19:16:36.627Z,21.52
2018-09-24T19:19:10.721Z,21.27
2018-09-24T19:21:44.752Z,21.46
2018-09-24T19:24:18.738Z,21.35
2018-09-24T19:26:53.364Z,21.26
2018-09-24T19:29:27.334Z,21.05
2018-09-24T19:32:01.610Z,20.93
2018-09-24T19:34:35.696Z,20.88
2018-09-24T19:37:09.745Z,20.79
2018-09-24T19:39:43.629Z,20.84
2018-09-24T19:42:17.733Z,20.72
2018-09-24T19:44:51.749Z,20.67
2018-09-24T19:47:25.664Z,20.31
2018-09-24T19:50:00.044Z,20.35
2018-09-24T19:52:33.947Z,20.24
2018-09-24T19:55:08.404Z,20.10
2018-09-24T19:57:42.512Z,20.02
2018-09-24T20:00:16.824Z,19.95
2018-09-24T20:02:51.258Z,19.83
2018-09-24T20:05:25.497Z,19.89
2018-09-24T20:07:59.674Z,19.76
2018-09-24T20:10:33.773Z,19.61
2018-09-24T20:13:08.072Z,19.37
2018-09-24T20:15:42.348Z,19.34
2018-09-24T20:18:16.445Z,19.33
2018-09-24T20:20:50.554Z,19.26
2018-09-24T20:23:25.005Z,19.28
2018-09-24T20:25:58.864Z,19.40
2018-09-24T20:28:33.176Z,19.22
2018-09-24T20:31:07.280Z,19.05
2018-09-24T20:33:41.363Z,19.07
2018-09-24T20:36:15.437Z,19.23
2018-09-24T20:38:49.379Z,18.82
2018-09-24T20:41:23.516Z,18.63
2018-09-24T20:43:57.528Z,18.68
2018-09-24T20:46:31.491Z,18.71
2018-09-24T20:49:05.408Z,18.48
2018-09-24T20:51:39.608Z,18.42
2018-09-24T20:54:13.496Z,18.62
2018-09-24T20:56:48.407Z,18.54
2018-09-24T20:59:22.513Z,18.65
2018-09-24T21:01:56.696Z,18.62
2018-09-24T21:04:30.901Z,18.33
2018-09-24T21:07:05.244Z,18.39
2018-09-24T21:09:39.247Z,18.40
2018-09-24T21:12:13.834Z,18.28
2018-09-24T21:14:48.518Z,18.21
2018-09-24T21:17:22.831Z,18.23
2018-09-24T21:19:57.045Z,18.40
2018-09-24T21:22:31.307Z,18.24
2018-09-24T21:25:05.599Z,18.03
2018-09-24T21:27:39.600Z,17.92
2018-09-24T21:30:14.126Z,17.87
2018-09-24T21:32:48.687Z,17.96
2018-09-24T21:35:22.669Z,17.92
2018-09-24T21:37:56.627Z,17.87
2018-09-24T21:40:30.720Z,17.69
2018-09-24T21:43:04.720Z,17.65
2018-09-24T21:45:38.672Z,17.42
2018-09-24T21:48:12.824Z,17.41
2018-09-24T21:50:47.082Z,17.36
2018-09-24T21:53:21.031Z,17.56
2018-09-24T21:55:55.418Z,17.41
2018-09-24T21:58:29.520Z,17.56
2018-09-24T22:01:03.462Z,17.41
2018-09-24T22:03:37.462Z,17.51
2018-09-24T22:06:11.908Z,17.29
2018-09-24T22:08:46.141Z,17.29
2018-09-24T22:11:20.309Z,17.14
2018-09-24T22:13:54.556Z,17.23
2018-09-24T22:16:28.767Z,17.12
2018-09-24T22:19:03.036Z,17.16
2018-09-24T22:21:37.493Z,16.90
2018-09-24T22:26:42.681Z,16.99
2018-09-24T22:29:16.859Z,16.78
2018-09-24T22:31:50.854Z,16.91
2018-09-24T22:34:24.836Z,16.96
2018-09-24T22:36:58.989Z,17.09
2018-09-24T22:39:33.002Z,16.88
2018-09-24T22:42:07.089Z,16.69
2018-09-24T22:44:41.067Z,16.59
2018-09-24T22:47:15.324Z,16.56
2018-09-24T22:49:49.436Z,16.40
2018-09-24T22:52:23.577Z,16.29
2018-09-24T22:54:57.616Z,16.32
2018-09-24T22:57:32.210Z,16.21
2018-09-24T23:00:06.239Z,16.42
2018-09-24T23:02:40.285Z,16.31
2018-09-24T23:05:14.184Z,16.00
2018-09-24T23:07:48.140Z,15.96
2018-09-24T23:10:22.217Z,16.01
2018-09-24T23:12:56.211Z,15.79
2018-09-24T23:15:30.234Z,15.54
2018-09-24T23:18:04.373Z,15.55
2018-09-24T23:20:38.505Z,15.43
2018-09-24T23:23:12.664Z,15.56
2018-09-24T23:25:46.888Z,15.24
2018-09-24T23:28:20.896Z,15.27
2018-09-24T23:30:54.979Z,15.34
2018-09-24T23:33:29.370Z,15.27
2018-09-24T23:36:03.515Z,15.33
2018-09-24T23:38:37.540Z,15.23
2018-09-24T23:41:11.886Z,15.13
2018-09-24T23:43:46.803Z,15.14
2018-09-24T23:46:21.221Z,15.03
2018-09-24T23:48:55.327Z,15.04
2018-09-24T23:51:29.780Z,15.00
2018-09-24T23:54:03.796Z,15.05
2018-09-24T23:56:38.228Z,15.03
2018-09-24T23:59:12.566Z,14.67
